sensor_id;sensor_type;location;lat;lon;timestamp;temperature;humidity
67901;DHT22;54700;51.796;10.956;2023-05-15T00:00:20;14.00;74.60
67901;DHT22;54700;51.796;10.956;2023-05-15T00:02:54;14.00;77.20
67901;DHT22;54700;51.796;10.956;2023-05-15T00:05:24;14.00;78.10
67901;DHT22;54700;51.796;10.956;2023-05-15T00:08:06;13.90;76.60
67901;DHT22;54700;51.796;10.956;2023-05-15T00:10:33;13.90;79.10
67901;DHT22;54700;51.796;10.956;2023-05-15T00:13:01;13.90;82.40
67901;DHT22;54700;51.796;10.956;2023-05-15T00:15:28;13.90;82.90
67901;DHT22;54700;51.796;10.956;2023-05-15T00:17:56;13.80;81.20
67901;DHT22;54700;51.796;10.956;2023-05-15T00:20:25;13.80;80.70
67901;DHT22;54700;51.796;10.956;2023-05-15T00:22:56;13.80;81.40
67901;DHT22;54700;51.796;10.956;2023-05-15T00:25:23;13.80;82.80
67901;DHT22;54700;51.796;10.956;2023-05-15T00:27:51;13.80;82.00
67901;DHT22;54700;51.796;10.956;2023-05-15T00:30:18;13.70;82.00
67901;DHT22;54700;51.796;10.956;2023-05-15T00:32:45;13.70;84.90
67901;DHT22;54700;51.796;10.956;2023-05-15T00:35:18;13.70;84.80
67901;DHT22;54700;51.796;10.956;2023-05-15T00:37:51;13.70;83.30
67901;DHT22;54700;51.796;10.956;2023-05-15T00:40:32;13.70;80.00
67901;DHT22;54700;51.796;10.956;2023-05-15T00:43:06;13.70;79.30
67901;DHT22;54700;51.796;10.956;2023-05-15T00:45:35;13.70;78.10
67901;DHT22;54700;51.796;10.956;2023-05-15T00:48:05;13.70;78.10
67901;DHT22;54700;51.796;10.956;2023-05-15T00:50:35;13.80;76.80
67901;DHT22;54700;51.796;10.956;2023-05-15T00:53:06;13.80;76.80
67901;DHT22;54700;51.796;10.956;2023-05-15T00:55:34;13.80;78.90
67901;DHT22;54700;51.796;10.956;2023-05-15T00:58:02;13.80;80.60
67901;DHT22;54700;51.796;10.956;2023-05-15T01:00:33;13.70;81.50
67901;DHT22;54700;51.796;10.956;2023-05-15T01:03:00;13.70;81.80
67901;DHT22;54700;51.796;10.956;2023-05-15T01:05:30;13.60;83.50
67901;DHT22;54700;51.796;10.956;2023-05-15T01:08:08;13.50;86.40
67901;DHT22;54700;51.796;10.956;2023-05-15T01:10:41;13.50;89.00
67901;DHT22;54700;51.796;10.956;2023-05-15T01:13:09;13.50;89.60
67901;DHT22;54700;51.796;10.956;2023-05-15T01:15:40;13.50;87.00
67901;DHT22;54700;51.796;10.956;2023-05-15T01:18:07;13.40;85.30
67901;DHT22;54700;51.796;10.956;2023-05-15T01:20:38;13.40;85.40
67901;DHT22;54700;51.796;10.956;2023-05-15T01:23:26;13.30;85.30
67901;DHT22;54700;51.796;10.956;2023-05-15T01:26:13;13.40;86.70
67901;DHT22;54700;51.796;10.956;2023-05-15T01:28:57;13.40;90.50
67901;DHT22;54700;51.796;10.956;2023-05-15T01:31:26;13.40;90.00
67901;DHT22;54700;51.796;10.956;2023-05-15T01:33:58;13.40;88.90
67901;DHT22;54700;51.796;10.956;2023-05-15T01:36:30;13.40;90.10
67901;DHT22;54700;51.796;10.956;2023-05-15T01:39:05;13.30;90.30
67901;DHT22;54700;51.796;10.956;2023-05-15T01:41:34;13.30;90.90
67901;DHT22;54700;51.796;10.956;2023-05-15T01:44:10;13.30;91.70
67901;DHT22;54700;51.796;10.956;2023-05-15T01:46:41;13.30;92.40
67901;DHT22;54700;51.796;10.956;2023-05-15T01:49:11;13.30;92.20
67901;DHT22;54700;51.796;10.956;2023-05-15T01:51:41;13.30;92.30
67901;DHT22;54700;51.796;10.956;2023-05-15T01:54:11;13.20;92.90
67901;DHT22;54700;51.796;10.956;2023-05-15T01:56:40;13.20;92.90
67901;DHT22;54700;51.796;10.956;2023-05-15T01:59:13;13.20;93.00
67901;DHT22;54700;51.796;10.956;2023-05-15T02:01:41;13.20;92.20
67901;DHT22;54700;51.796;10.956;2023-05-15T02:04:11;13.10;92.60
67901;DHT22;54700;51.796;10.956;2023-05-15T02:06:39;13.10;90.40
67901;DHT22;54700;51.796;10.956;2023-05-15T02:09:07;13.10;90.50
67901;DHT22;54700;51.796;10.956;2023-05-15T02:11:35;13.10;90.00
67901;DHT22;54700;51.796;10.956;2023-05-15T02:14:03;13.10;89.10
67901;DHT22;54700;51.796;10.956;2023-05-15T02:16:32;13.20;86.60
67901;DHT22;54700;51.796;10.956;2023-05-15T02:19:08;13.20;86.60
67901;DHT22;54700;51.796;10.956;2023-05-15T02:21:35;13.20;89.00
67901;DHT22;54700;51.796;10.956;2023-05-15T02:24:03;13.20;90.40
67901;DHT22;54700;51.796;10.956;2023-05-15T02:26:38;13.20;91.30
67901;DHT22;54700;51.796;10.956;2023-05-15T02:29:17;13.20;91.30
67901;DHT22;54700;51.796;10.956;2023-05-15T02:31:54;13.10;92.50
67901;DHT22;54700;51.796;10.956;2023-05-15T02:34:33;13.10;93.80
67901;DHT22;54700;51.796;10.956;2023-05-15T02:37:08;13.10;87.90
67901;DHT22;54700;51.796;10.956;2023-05-15T02:39:42;13.00;84.50
67901;DHT22;54700;51.796;10.956;2023-05-15T02:42:10;13.00;84.20
67901;DHT22;54700;51.796;10.956;2023-05-15T02:44:42;13.00;83.30
67901;DHT22;54700;51.796;10.956;2023-05-15T02:47:11;13.00;81.40
67901;DHT22;54700;51.796;10.956;2023-05-15T02:49:40;13.00;81.00
67901;DHT22;54700;51.796;10.956;2023-05-15T02:52:07;13.00;79.40
67901;DHT22;54700;51.796;10.956;2023-05-15T02:54:40;12.90;80.70
67901;DHT22;54700;51.796;10.956;2023-05-15T02:57:08;12.90;83.40
67901;DHT22;54700;51.796;10.956;2023-05-15T02:59:38;12.90;84.80
67901;DHT22;54700;51.796;10.956;2023-05-15T03:02:05;12.90;87.80
67901;DHT22;54700;51.796;10.956;2023-05-15T03:04:34;12.80;88.10
67901;DHT22;54700;51.796;10.956;2023-05-15T03:07:03;12.80;90.90
67901;DHT22;54700;51.796;10.956;2023-05-15T03:09:36;12.70;91.50
67901;DHT22;54700;51.796;10.956;2023-05-15T03:12:06;12.60;91.20
67901;DHT22;54700;51.796;10.956;2023-05-15T03:14:37;12.60;90.50
67901;DHT22;54700;51.796;10.956;2023-05-15T03:17:13;12.60;90.40
67901;DHT22;54700;51.796;10.956;2023-05-15T03:19:47;12.50;83.30
67901;DHT22;54700;51.796;10.956;2023-05-15T03:22:23;12.50;81.40
67901;DHT22;54700;51.796;10.956;2023-05-15T03:24:53;12.50;82.10
67901;DHT22;54700;51.796;10.956;2023-05-15T03:27:20;12.50;82.10
67901;DHT22;54700;51.796;10.956;2023-05-15T03:29:47;12.50;80.20
67901;DHT22;54700;51.796;10.956;2023-05-15T03:32:18;12.50;79.30
67901;DHT22;54700;51.796;10.956;2023-05-15T03:34:46;12.50;78.60
67901;DHT22;54700;51.796;10.956;2023-05-15T03:37:16;12.50;78.60
67901;DHT22;54700;51.796;10.956;2023-05-15T03:39:47;12.50;78.20
67901;DHT22;54700;51.796;10.956;2023-05-15T03:42:23;12.50;78.10
67901;DHT22;54700;51.796;10.956;2023-05-15T03:44:52;12.40;78.00
67901;DHT22;54700;51.796;10.956;2023-05-15T03:47:20;12.40;77.60
67901;DHT22;54700;51.796;10.956;2023-05-15T03:49:50;12.40;77.50
67901;DHT22;54700;51.796;10.956;2023-05-15T03:52:17;12.40;78.10
67901;DHT22;54700;51.796;10.956;2023-05-15T03:54:45;12.40;78.40
67901;DHT22;54700;51.796;10.956;2023-05-15T03:57:16;12.40;77.30
67901;DHT22;54700;51.796;10.956;2023-05-15T03:59:52;12.50;75.80
67901;DHT22;54700;51.796;10.956;2023-05-15T04:02:21;12.50;74.90
67901;DHT22;54700;51.796;10.956;2023-05-15T04:04:50;12.60;74.50
67901;DHT22;54700;51.796;10.956;2023-05-15T04:07:20;12.70;73.90
67901;DHT22;54700;51.796;10.956;2023-05-15T04:09:48;12.70;72.70
67901;DHT22;54700;51.796;10.956;2023-05-15T04:12:15;12.70;72.40
67901;DHT22;54700;51.796;10.956;2023-05-15T04:14:42;12.80;72.30
67901;DHT22;54700;51.796;10.956;2023-05-15T04:17:09;12.90;71.50
67901;DHT22;54700;51.796;10.956;2023-05-15T04:19:36;12.90;70.30
67901;DHT22;54700;51.796;10.956;2023-05-15T04:22:04;13.00;69.40
67901;DHT22;54700;51.796;10.956;2023-05-15T04:24:31;13.20;69.30
67901;DHT22;54700;51.796;10.956;2023-05-15T04:27:00;13.40;67.70
67901;DHT22;54700;51.796;10.956;2023-05-15T04:29:28;13.60;66.70
67901;DHT22;54700;51.796;10.956;2023-05-15T04:31:55;13.70;66.00
67901;DHT22;54700;51.796;10.956;2023-05-15T04:34:24;13.80;65.60
67901;DHT22;54700;51.796;10.956;2023-05-15T04:36:53;14.00;65.40
67901;DHT22;54700;51.796;10.956;2023-05-15T04:39:22;14.10;65.40
67901;DHT22;54700;51.796;10.956;2023-05-15T04:41:49;14.60;64.30
67901;DHT22;54700;51.796;10.956;2023-05-15T04:44:24;15.50;61.10
67901;DHT22;54700;51.796;10.956;2023-05-15T04:46:52;16.30;58.30
67901;DHT22;54700;51.796;10.956;2023-05-15T04:49:31;17.00;56.00
67901;DHT22;54700;51.796;10.956;2023-05-15T04:52:16;17.40;54.20
67901;DHT22;54700;51.796;10.956;2023-05-15T04:54:46;17.40;52.80
67901;DHT22;54700;51.796;10.956;2023-05-15T04:57:19;17.40;53.00
67901;DHT22;54700;51.796;10.956;2023-05-15T05:00:05;17.90;52.50
67901;DHT22;54700;51.796;10.956;2023-05-15T05:02:37;18.30;50.30
67901;DHT22;54700;51.796;10.956;2023-05-15T05:05:23;18.70;49.80
67901;DHT22;54700;51.796;10.956;2023-05-15T05:07:55;18.30;50.60
67901;DHT22;54700;51.796;10.956;2023-05-15T05:10:27;17.50;51.70
67901;DHT22;54700;51.796;10.956;2023-05-15T05:12:57;16.80;53.20
67901;DHT22;54700;51.796;10.956;2023-05-15T05:15:24;16.30;54.40
67901;DHT22;54700;51.796;10.956;2023-05-15T05:17:55;15.90;55.70
67901;DHT22;54700;51.796;10.956;2023-05-15T05:20:24;15.60;57.10
67901;DHT22;54700;51.796;10.956;2023-05-15T05:22:56;15.50;58.10
67901;DHT22;54700;51.796;10.956;2023-05-15T05:25:24;15.40;58.10
67901;DHT22;54700;51.796;10.956;2023-05-15T05:27:55;15.40;59.10
67901;DHT22;54700;51.796;10.956;2023-05-15T05:30:25;15.50;60.20
67901;DHT22;54700;51.796;10.956;2023-05-15T05:32:55;15.70;60.00
67901;DHT22;54700;51.796;10.956;2023-05-15T05:35:23;15.70;59.20
67901;DHT22;54700;51.796;10.956;2023-05-15T05:37:56;15.70;58.90
67901;DHT22;54700;51.796;10.956;2023-05-15T05:40:28;15.70;59.20
67901;DHT22;54700;51.796;10.956;2023-05-15T05:42:58;15.80;59.60
67901;DHT22;54700;51.796;10.956;2023-05-15T05:45:28;15.80;59.10
67901;DHT22;54700;51.796;10.956;2023-05-15T05:47:55;15.90;59.70
67901;DHT22;54700;51.796;10.956;2023-05-15T05:50:30;16.00;59.20
67901;DHT22;54700;51.796;10.956;2023-05-15T05:52:57;16.10;57.10
67901;DHT22;54700;51.796;10.956;2023-05-15T05:55:30;16.10;57.40
67901;DHT22;54700;51.796;10.956;2023-05-15T05:58:13;16.20;57.80
67901;DHT22;54700;51.796;10.956;2023-05-15T06:00:49;16.20;58.40
67901;DHT22;54700;51.796;10.956;2023-05-15T06:03:16;16.10;60.20
67901;DHT22;54700;51.796;10.956;2023-05-15T06:05:46;16.10;60.60
67901;DHT22;54700;51.796;10.956;2023-05-15T06:08:29;15.90;59.50
67901;DHT22;54700;51.796;10.956;2023-05-15T06:10:59;15.90;60.10
67901;DHT22;54700;51.796;10.956;2023-05-15T06:13:29;15.90;59.40
67901;DHT22;54700;51.796;10.956;2023-05-15T06:15:56;15.90;58.20
67901;DHT22;54700;51.796;10.956;2023-05-15T06:18:23;15.90;57.90
67901;DHT22;54700;51.796;10.956;2023-05-15T06:20:53;15.90;58.00
67901;DHT22;54700;51.796;10.956;2023-05-15T06:23:23;15.70;57.60
67901;DHT22;54700;51.796;10.956;2023-05-15T06:25:51;15.60;58.50
67901;DHT22;54700;51.796;10.956;2023-05-15T06:28:26;15.60;59.20
67901;DHT22;54700;51.796;10.956;2023-05-15T06:30:54;15.50;59.70
67901;DHT22;54700;51.796;10.956;2023-05-15T06:33:33;15.50;59.80
67901;DHT22;54700;51.796;10.956;2023-05-15T06:36:00;15.50;60.30
67901;DHT22;54700;51.796;10.956;2023-05-15T06:38:30;15.50;60.30
67901;DHT22;54700;51.796;10.956;2023-05-15T06:40:57;15.30;60.50
67901;DHT22;54700;51.796;10.956;2023-05-15T06:43:36;15.30;61.60
67901;DHT22;54700;51.796;10.956;2023-05-15T06:46:03;15.20;62.70
67901;DHT22;54700;51.796;10.956;2023-05-15T06:48:44;15.20;61.80
67901;DHT22;54700;51.796;10.956;2023-05-15T06:51:34;15.20;62.20
67901;DHT22;54700;51.796;10.956;2023-05-15T06:54:06;15.10;61.90
67901;DHT22;54700;51.796;10.956;2023-05-15T06:56:57;15.10;62.40
67901;DHT22;54700;51.796;10.956;2023-05-15T06:59:33;15.10;62.70
67901;DHT22;54700;51.796;10.956;2023-05-15T07:02:09;15.10;62.50
67901;DHT22;54700;51.796;10.956;2023-05-15T07:05:07;15.10;63.50
67901;DHT22;54700;51.796;10.956;2023-05-15T07:10:34;15.00;64.10
67901;DHT22;54700;51.796;10.956;2023-05-15T07:13:10;15.00;64.20
67901;DHT22;54700;51.796;10.956;2023-05-15T07:15:49;15.10;64.40
67901;DHT22;54700;51.796;10.956;2023-05-15T07:18:19;15.10;63.50
67901;DHT22;54700;51.796;10.956;2023-05-15T07:20:51;15.10;62.30
67901;DHT22;54700;51.796;10.956;2023-05-15T07:23:30;15.20;62.40
67901;DHT22;54700;51.796;10.956;2023-05-15T07:26:25;15.30;62.30
67901;DHT22;54700;51.796;10.956;2023-05-15T07:28:58;15.40;62.10
67901;DHT22;54700;51.796;10.956;2023-05-15T07:31:31;15.50;62.10
67901;DHT22;54700;51.796;10.956;2023-05-15T07:34:29;15.60;60.70
67901;DHT22;54700;51.796;10.956;2023-05-15T07:37:03;15.60;60.40
67901;DHT22;54700;51.796;10.956;2023-05-15T07:39:49;15.60;59.60
67901;DHT22;54700;51.796;10.956;2023-05-15T07:42:25;15.70;59.70
67901;DHT22;54700;51.796;10.956;2023-05-15T07:45:03;15.70;58.90
67901;DHT22;54700;51.796;10.956;2023-05-15T07:47:53;15.80;59.10
67901;DHT22;54700;51.796;10.956;2023-05-15T07:56:11;16.10;58.80
67901;DHT22;54700;51.796;10.956;2023-05-15T07:58:56;16.10;58.80
67901;DHT22;54700;51.796;10.956;2023-05-15T08:01:52;16.10;58.60
67901;DHT22;54700;51.796;10.956;2023-05-15T08:04:32;16.10;57.70
67901;DHT22;54700;51.796;10.956;2023-05-15T08:07:22;16.30;59.40
67901;DHT22;54700;51.796;10.956;2023-05-15T08:09:59;16.40;57.20
67901;DHT22;54700;51.796;10.956;2023-05-15T08:12:49;16.30;57.00
67901;DHT22;54700;51.796;10.956;2023-05-15T08:15:29;16.50;56.60
67901;DHT22;54700;51.796;10.956;2023-05-15T08:18:07;16.70;57.20
67901;DHT22;54700;51.796;10.956;2023-05-15T08:21:03;16.60;55.60
67901;DHT22;54700;51.796;10.956;2023-05-15T08:23:35;16.80;56.50
67901;DHT22;54700;51.796;10.956;2023-05-15T08:26:12;16.80;56.50
67901;DHT22;54700;51.796;10.956;2023-05-15T08:28:43;17.00;56.30
67901;DHT22;54700;51.796;10.956;2023-05-15T08:31:33;16.90;56.40
67901;DHT22;54700;51.796;10.956;2023-05-15T08:34:20;16.90;55.30
67901;DHT22;54700;51.796;10.956;2023-05-15T08:37:00;16.90;55.40
67901;DHT22;54700;51.796;10.956;2023-05-15T08:42:36;17.00;54.10
67901;DHT22;54700;51.796;10.956;2023-05-15T08:45:10;17.20;55.30
67901;DHT22;54700;51.796;10.956;2023-05-15T08:47:57;17.20;54.00
67901;DHT22;54700;51.796;10.956;2023-05-15T08:50:26;17.00;55.00
67901;DHT22;54700;51.796;10.956;2023-05-15T08:53:07;16.90;55.20
67901;DHT22;54700;51.796;10.956;2023-05-15T08:55:48;17.00;56.30
67901;DHT22;54700;51.796;10.956;2023-05-15T08:58:22;16.90;56.60
67901;DHT22;54700;51.796;10.956;2023-05-15T09:01:04;16.90;56.30
67901;DHT22;54700;51.796;10.956;2023-05-15T09:03:41;16.80;55.90
67901;DHT22;54700;51.796;10.956;2023-05-15T09:06:26;16.80;57.70
67901;DHT22;54700;51.796;10.956;2023-05-15T09:09:01;16.80;56.80
67901;DHT22;54700;51.796;10.956;2023-05-15T09:11:36;17.00;56.90
67901;DHT22;54700;51.796;10.956;2023-05-15T09:14:08;17.00;57.50
67901;DHT22;54700;51.796;10.956;2023-05-15T09:16:38;17.00;56.50
67901;DHT22;54700;51.796;10.956;2023-05-15T09:19:18;17.00;54.90
67901;DHT22;54700;51.796;10.956;2023-05-15T09:21:46;17.00;54.80
67901;DHT22;54700;51.796;10.956;2023-05-15T09:24:20;16.90;54.80
67901;DHT22;54700;51.796;10.956;2023-05-15T09:27:00;17.10;55.90
67901;DHT22;54700;51.796;10.956;2023-05-15T09:32:48;17.00;56.10
67901;DHT22;54700;51.796;10.956;2023-05-15T09:35:34;17.00;55.90
67901;DHT22;54700;51.796;10.956;2023-05-15T09:38:06;17.00;55.70
67901;DHT22;54700;51.796;10.956;2023-05-15T09:43:42;17.10;55.70
67901;DHT22;54700;51.796;10.956;2023-05-15T09:46:23;17.20;55.10
67901;DHT22;54700;51.796;10.956;2023-05-15T09:49:49;17.30;54.30
67901;DHT22;54700;51.796;10.956;2023-05-15T09:52:25;17.30;53.80
67901;DHT22;54700;51.796;10.956;2023-05-15T09:55:08;17.50;54.10
67901;DHT22;54700;51.796;10.956;2023-05-15T09:58:08;17.50;54.70
67901;DHT22;54700;51.796;10.956;2023-05-15T10:00:51;17.40;52.30
67901;DHT22;54700;51.796;10.956;2023-05-15T10:03:41;17.40;53.20
67901;DHT22;54700;51.796;10.956;2023-05-15T10:06:21;17.60;53.20
67901;DHT22;54700;51.796;10.956;2023-05-15T10:09:15;17.70;53.80
67901;DHT22;54700;51.796;10.956;2023-05-15T10:11:44;17.60;52.20
67901;DHT22;54700;51.796;10.956;2023-05-15T10:14:25;17.50;51.50
67901;DHT22;54700;51.796;10.956;2023-05-15T10:16:59;17.60;51.90
67901;DHT22;54700;51.796;10.956;2023-05-15T10:19:30;17.60;53.00
67901;DHT22;54700;51.796;10.956;2023-05-15T10:21:58;17.50;52.60
67901;DHT22;54700;51.796;10.956;2023-05-15T10:24:34;17.60;52.10
67901;DHT22;54700;51.796;10.956;2023-05-15T10:27:14;17.60;51.80
67901;DHT22;54700;51.796;10.956;2023-05-15T10:29:50;17.70;51.90
67901;DHT22;54700;51.796;10.956;2023-05-15T10:32:39;17.70;52.60
67901;DHT22;54700;51.796;10.956;2023-05-15T10:35:25;17.70;51.10
67901;DHT22;54700;51.796;10.956;2023-05-15T10:38:05;17.80;50.40
67901;DHT22;54700;51.796;10.956;2023-05-15T10:40:48;17.90;51.00
67901;DHT22;54700;51.796;10.956;2023-05-15T10:43:31;17.90;49.70
67901;DHT22;54700;51.796;10.956;2023-05-15T10:46:02;17.90;51.00
67901;DHT22;54700;51.796;10.956;2023-05-15T10:48:41;18.00;51.70
67901;DHT22;54700;51.796;10.956;2023-05-15T10:51:22;18.30;51.50
67901;DHT22;54700;51.796;10.956;2023-05-15T10:54:04;18.30;49.60
67901;DHT22;54700;51.796;10.956;2023-05-15T10:56:37;18.40;48.60
67901;DHT22;54700;51.796;10.956;2023-05-15T10:59:22;18.30;48.90
67901;DHT22;54700;51.796;10.956;2023-05-15T11:02:20;18.20;49.00
67901;DHT22;54700;51.796;10.956;2023-05-15T11:05:08;18.20;50.00
67901;DHT22;54700;51.796;10.956;2023-05-15T11:07:41;18.40;49.90
67901;DHT22;54700;51.796;10.956;2023-05-15T11:10:35;18.60;49.90
67901;DHT22;54700;51.796;10.956;2023-05-15T11:13:04;18.60;49.40
67901;DHT22;54700;51.796;10.956;2023-05-15T11:15:40;18.80;48.20
67901;DHT22;54700;51.796;10.956;2023-05-15T11:18:10;18.70;48.90
67901;DHT22;54700;51.796;10.956;2023-05-15T11:20:39;18.70;49.40
67901;DHT22;54700;51.796;10.956;2023-05-15T11:23:13;18.60;49.30
67901;DHT22;54700;51.796;10.956;2023-05-15T11:25:54;18.60;49.10
67901;DHT22;54700;51.796;10.956;2023-05-15T11:28:39;18.60;50.20
67901;DHT22;54700;51.796;10.956;2023-05-15T11:31:19;18.70;50.00
67901;DHT22;54700;51.796;10.956;2023-05-15T11:34:03;18.80;49.50
67901;DHT22;54700;51.796;10.956;2023-05-15T11:36:44;18.90;49.30
67901;DHT22;54700;51.796;10.956;2023-05-15T11:39:31;18.90;48.40
67901;DHT22;54700;51.796;10.956;2023-05-15T11:42:23;19.10;48.20
67901;DHT22;54700;51.796;10.956;2023-05-15T11:45:06;19.20;48.70
67901;DHT22;54700;51.796;10.956;2023-05-15T11:47:40;19.20;49.00
67901;DHT22;54700;51.796;10.956;2023-05-15T11:50:21;19.20;46.70
67901;DHT22;54700;51.796;10.956;2023-05-15T11:53:03;19.00;48.10
67901;DHT22;54700;51.796;10.956;2023-05-15T11:55:41;19.20;47.60
67901;DHT22;54700;51.796;10.956;2023-05-15T11:58:22;19.20;47.30
67901;DHT22;54700;51.796;10.956;2023-05-15T12:01:00;19.10;47.30
67901;DHT22;54700;51.796;10.956;2023-05-15T12:03:31;19.20;47.60
67901;DHT22;54700;51.796;10.956;2023-05-15T12:06:10;19.40;46.40
67901;DHT22;54700;51.796;10.956;2023-05-15T12:08:40;19.60;45.00
67901;DHT22;54700;51.796;10.956;2023-05-15T12:11:08;19.60;45.50
67901;DHT22;54700;51.796;10.956;2023-05-15T12:13:40;19.50;45.70
67901;DHT22;54700;51.796;10.956;2023-05-15T12:16:10;19.40;46.00
67901;DHT22;54700;51.796;10.956;2023-05-15T12:18:47;19.40;45.40
67901;DHT22;54700;51.796;10.956;2023-05-15T12:21:27;19.60;46.10
67901;DHT22;54700;51.796;10.956;2023-05-15T12:23:58;19.60;46.30
67901;DHT22;54700;51.796;10.956;2023-05-15T12:26:44;19.30;46.50
67901;DHT22;54700;51.796;10.956;2023-05-15T12:29:24;19.10;47.30
67901;DHT22;54700;51.796;10.956;2023-05-15T12:34:47;19.00;48.10
67901;DHT22;54700;51.796;10.956;2023-05-15T12:37:40;18.80;47.80
67901;DHT22;54700;51.796;10.956;2023-05-15T12:40:12;18.80;47.90
67901;DHT22;54700;51.796;10.956;2023-05-15T12:42:50;18.80;48.60
67901;DHT22;54700;51.796;10.956;2023-05-15T12:45:24;18.80;48.90
67901;DHT22;54700;51.796;10.956;2023-05-15T12:48:22;18.90;48.60
67901;DHT22;54700;51.796;10.956;2023-05-15T12:51:31;19.00;48.10
67901;DHT22;54700;51.796;10.956;2023-05-15T12:54:19;19.20;47.50
67901;DHT22;54700;51.796;10.956;2023-05-15T12:56:52;19.30;47.50
67901;DHT22;54700;51.796;10.956;2023-05-15T12:59:26;19.20;48.40
67901;DHT22;54700;51.796;10.956;2023-05-15T13:05:06;18.40;50.50
67901;DHT22;54700;51.796;10.956;2023-05-15T13:07:39;18.20;49.70
67901;DHT22;54700;51.796;10.956;2023-05-15T13:10:24;18.20;47.90
67901;DHT22;54700;51.796;10.956;2023-05-15T13:13:44;18.30;48.30
67901;DHT22;54700;51.796;10.956;2023-05-15T13:19:32;18.60;46.50
67901;DHT22;54700;51.796;10.956;2023-05-15T13:22:16;18.50;47.00
67901;DHT22;54700;51.796;10.956;2023-05-15T13:25:07;18.40;48.50
67901;DHT22;54700;51.796;10.956;2023-05-15T13:28:06;18.20;50.00
67901;DHT22;54700;51.796;10.956;2023-05-15T13:31:17;18.10;51.00
67901;DHT22;54700;51.796;10.956;2023-05-15T13:33:58;18.10;50.80
67901;DHT22;54700;51.796;10.956;2023-05-15T13:36:59;18.10;50.80
67901;DHT22;54700;51.796;10.956;2023-05-15T13:39:32;18.10;50.40
67901;DHT22;54700;51.796;10.956;2023-05-15T13:42:02;18.20;48.90
67901;DHT22;54700;51.796;10.956;2023-05-15T13:44:45;18.20;49.20
67901;DHT22;54700;51.796;10.956;2023-05-15T13:47:23;18.30;49.30
67901;DHT22;54700;51.796;10.956;2023-05-15T13:50:01;18.40;48.30
67901;DHT22;54700;51.796;10.956;2023-05-15T13:52:34;18.40;47.40
67901;DHT22;54700;51.796;10.956;2023-05-15T13:55:04;18.50;48.10
67901;DHT22;54700;51.796;10.956;2023-05-15T13:57:35;18.70;48.50
67901;DHT22;54700;51.796;10.956;2023-05-15T14:00:09;18.80;47.20
67901;DHT22;54700;51.796;10.956;2023-05-15T14:05:35;18.90;44.90
67901;DHT22;54700;51.796;10.956;2023-05-15T14:08:37;18.80;44.30
67901;DHT22;54700;51.796;10.956;2023-05-15T14:11:16;18.80;44.40
67901;DHT22;54700;51.796;10.956;2023-05-15T14:13:55;18.70;44.00
67901;DHT22;54700;51.796;10.956;2023-05-15T14:16:24;18.70;44.70
67901;DHT22;54700;51.796;10.956;2023-05-15T14:19:13;18.70;44.70
67901;DHT22;54700;51.796;10.956;2023-05-15T14:21:45;18.60;44.00
67901;DHT22;54700;51.796;10.956;2023-05-15T14:24:44;18.60;44.80
67901;DHT22;54700;51.796;10.956;2023-05-15T14:27:16;18.70;45.10
67901;DHT22;54700;51.796;10.956;2023-05-15T14:30:06;18.80;44.90
67901;DHT22;54700;51.796;10.956;2023-05-15T14:32:43;19.00;43.80
67901;DHT22;54700;51.796;10.956;2023-05-15T14:35:13;19.10;43.70
67901;DHT22;54700;51.796;10.956;2023-05-15T14:37:49;19.20;44.30
67901;DHT22;54700;51.796;10.956;2023-05-15T14:40:33;19.20;44.20
67901;DHT22;54700;51.796;10.956;2023-05-15T14:43:11;19.40;44.40
67901;DHT22;54700;51.796;10.956;2023-05-15T14:45:56;19.50;44.40
67901;DHT22;54700;51.796;10.956;2023-05-15T14:48:31;19.40;44.20
67901;DHT22;54700;51.796;10.956;2023-05-15T14:50:59;19.50;44.80
67901;DHT22;54700;51.796;10.956;2023-05-15T14:53:43;19.60;45.10
67901;DHT22;54700;51.796;10.956;2023-05-15T14:56:16;19.70;44.70
67901;DHT22;54700;51.796;10.956;2023-05-15T14:59:03;19.70;44.50
67901;DHT22;54700;51.796;10.956;2023-05-15T15:01:32;19.70;45.40
67901;DHT22;54700;51.796;10.956;2023-05-15T15:04:12;19.70;45.50
67901;DHT22;54700;51.796;10.956;2023-05-15T15:06:48;19.70;45.60
67901;DHT22;54700;51.796;10.956;2023-05-15T15:09:15;19.70;46.30
67901;DHT22;54700;51.796;10.956;2023-05-15T15:11:46;19.80;45.90
67901;DHT22;54700;51.796;10.956;2023-05-15T15:14:16;19.80;45.40
67901;DHT22;54700;51.796;10.956;2023-05-15T15:16:45;19.80;45.30
67901;DHT22;54700;51.796;10.956;2023-05-15T15:19:19;19.70;44.90
67901;DHT22;54700;51.796;10.956;2023-05-15T15:21:50;19.60;45.10
67901;DHT22;54700;51.796;10.956;2023-05-15T15:24:22;19.60;45.50
67901;DHT22;54700;51.796;10.956;2023-05-15T15:26:55;19.60;45.90
67901;DHT22;54700;51.796;10.956;2023-05-15T15:29:23;19.50;45.80
67901;DHT22;54700;51.796;10.956;2023-05-15T15:31:56;19.40;45.20
67901;DHT22;54700;51.796;10.956;2023-05-15T15:34:43;19.40;45.60
67901;DHT22;54700;51.796;10.956;2023-05-15T15:37:54;19.30;46.10
67901;DHT22;54700;51.796;10.956;2023-05-15T15:40:31;19.40;46.70
67901;DHT22;54700;51.796;10.956;2023-05-15T15:43:14;19.30;46.80
67901;DHT22;54700;51.796;10.956;2023-05-15T15:46:35;19.30;47.20
67901;DHT22;54700;51.796;10.956;2023-05-15T15:49:23;19.20;47.50
67901;DHT22;54700;51.796;10.956;2023-05-15T15:52:43;19.10;47.80
67901;DHT22;54700;51.796;10.956;2023-05-15T15:55:14;18.90;47.50
67901;DHT22;54700;51.796;10.956;2023-05-15T15:57:57;18.80;48.40
67901;DHT22;54700;51.796;10.956;2023-05-15T16:03:35;18.60;49.30
67901;DHT22;54700;51.796;10.956;2023-05-15T16:06:32;18.60;49.60
67901;DHT22;54700;51.796;10.956;2023-05-15T16:09:12;18.60;49.70
67901;DHT22;54700;51.796;10.956;2023-05-15T16:11:44;18.60;49.20
67901;DHT22;54700;51.796;10.956;2023-05-15T16:14:17;18.50;48.90
67901;DHT22;54700;51.796;10.956;2023-05-15T16:16:45;18.50;49.40
67901;DHT22;54700;51.796;10.956;2023-05-15T16:19:17;18.40;49.60
67901;DHT22;54700;51.796;10.956;2023-05-15T16:21:56;18.40;49.60
67901;DHT22;54700;51.796;10.956;2023-05-15T16:24:52;18.40;49.50
67901;DHT22;54700;51.796;10.956;2023-05-15T16:27:22;18.30;49.10
67901;DHT22;54700;51.796;10.956;2023-05-15T16:29:49;18.40;49.10
67901;DHT22;54700;51.796;10.956;2023-05-15T16:32:31;18.60;48.50
67901;DHT22;54700;51.796;10.956;2023-05-15T16:34:59;18.70;47.50
67901;DHT22;54700;51.796;10.956;2023-05-15T16:37:33;18.70;47.80
67901;DHT22;54700;51.796;10.956;2023-05-15T16:40:07;18.70;48.10
67901;DHT22;54700;51.796;10.956;2023-05-15T16:42:45;18.80;48.40